sensor_id;sensor_type;location;lat;lon;timestamp;pressure;altitude;pressure_sealevel;temperature;humidity
50105;BME280;47690;39.202;-77.198;2022-09-29T00:04:06;100899.00;;;44.06;10.30
50105;BME280;47690;39.202;-77.198;2022-09-29T00:08:02;100908.31;;;44.11;10.81
50105;BME280;47690;39.202;-77.198;2022-09-29T00:11:57;100915.34;;;43.69;10.93
50105;BME280;47690;39.202;-77.198;2022-09-29T00:32:17;100923.06;;;42.91;11.13
50105;BME280;47690;39.202;-77.198;2022-09-29T00:36:34;100933.25;;;42.95;11.31
50105;BME280;47690;39.202;-77.198;2022-09-29T00:41:53;100936.03;;;44.55;10.47
50105;BME280;47690;39.202;-77.198;2022-09-29T00:51:19;100953.47;;;43.18;11.16
50105;BME280;47690;39.202;-77.198;2022-09-29T00:55:27;100949.88;;;43.43;11.09
50105;BME280;47690;39.202;-77.198;2022-09-29T01:00:03;100949.00;;;43.24;10.73
50105;BME280;47690;39.202;-77.198;2022-09-29T01:04:29;100960.19;;;43.53;11.08
50105;BME280;47690;39.202;-77.198;2022-09-29T01:13:24;100971.41;;;42.29;11.71
50105;BME280;47690;39.202;-77.198;2022-09-29T01:16:33;100973.41;;;42.09;11.53
50105;BME280;47690;39.202;-77.198;2022-09-29T01:31:30;100990.03;;;42.83;11.27
50105;BME280;47690;39.202;-77.198;2022-09-29T01:42:16;100991.94;;;41.26;12.29
50105;BME280;47690;39.202;-77.198;2022-09-29T01:45:31;100992.19;;;41.24;12.31
50105;BME280;47690;39.202;-77.198;2022-09-29T01:48:52;100991.50;;;41.22;12.20
50105;BME280;47690;39.202;-77.198;2022-09-29T01:52:30;101002.13;;;41.17;12.33
50105;BME280;47690;39.202;-77.198;2022-09-29T01:55:47;101016.28;;;40.99;12.31
50105;BME280;47690;39.202;-77.198;2022-09-29T01:59:14;101007.94;;;41.00;11.85
50105;BME280;47690;39.202;-77.198;2022-09-29T02:03:24;101014.41;;;41.26;11.84
50105;BME280;47690;39.202;-77.198;2022-09-29T02:12:25;101006.84;;;41.62;12.01
50105;BME280;47690;39.202;-77.198;2022-09-29T02:16:29;101010.63;;;41.47;11.83
50105;BME280;47690;39.202;-77.198;2022-09-29T02:20:38;101012.69;;;41.59;11.48
50105;BME280;47690;39.202;-77.198;2022-09-29T02:25:05;101024.94;;;41.68;11.52
50105;BME280;47690;39.202;-77.198;2022-09-29T02:28:15;101026.66;;;41.35;11.93
50105;BME280;47690;39.202;-77.198;2022-09-29T02:31:18;101023.91;;;41.76;11.41
50105;BME280;47690;39.202;-77.198;2022-09-29T02:35:06;101038.84;;;40.57;12.41
50105;BME280;47690;39.202;-77.198;2022-09-29T02:39:01;101036.00;;;40.23;12.64
50105;BME280;47690;39.202;-77.198;2022-09-29T02:42:32;101028.88;;;40.02;12.65
50105;BME280;47690;39.202;-77.198;2022-09-29T03:03:06;101037.47;;;40.26;12.83
50105;BME280;47690;39.202;-77.198;2022-09-29T03:11:57;101047.09;;;40.00;12.46
50105;BME280;47690;39.202;-77.198;2022-09-29T03:15:57;101044.94;;;40.24;12.21
50105;BME280;47690;39.202;-77.198;2022-09-29T03:18:56;101049.00;;;39.99;12.46
50105;BME280;47690;39.202;-77.198;2022-09-29T03:22:01;101053.41;;;40.69;11.88
50105;BME280;47690;39.202;-77.198;2022-09-29T03:26:07;101053.59;;;40.61;12.08
50105;BME280;47690;39.202;-77.198;2022-09-29T03:31:07;101057.72;;;40.50;12.31
50105;BME280;47690;39.202;-77.198;2022-09-29T03:35:29;101056.03;;;40.42;12.46
50105;BME280;47690;39.202;-77.198;2022-09-29T03:39:33;101059.00;;;40.68;12.15
50105;BME280;47690;39.202;-77.198;2022-09-29T03:54:05;101078.22;;;41.20;12.00
50105;BME280;47690;39.202;-77.198;2022-09-29T03:57:41;101077.16;;;40.88;12.01
50105;BME280;47690;39.202;-77.198;2022-09-29T04:02:59;101084.19;;;40.95;11.93
50105;BME280;47690;39.202;-77.198;2022-09-29T04:17:49;101086.38;;;40.58;12.38
50105;BME280;47690;39.202;-77.198;2022-09-29T04:22:44;101080.84;;;40.80;11.96
50105;BME280;47690;39.202;-77.198;2022-09-29T04:30:50;101096.75;;;40.54;12.63
50105;BME280;47690;39.202;-77.198;2022-09-29T04:34:01;101087.50;;;40.28;12.98
50105;BME280;47690;39.202;-77.198;2022-09-29T04:37:39;101092.94;;;41.04;12.22
50105;BME280;47690;39.202;-77.198;2022-09-29T04:41:09;101089.88;;;40.45;12.69
50105;BME280;47690;39.202;-77.198;2022-09-29T04:45:09;101084.72;;;40.64;12.45
50105;BME280;47690;39.202;-77.198;2022-09-29T04:49:05;101090.03;;;41.06;12.30
50105;BME280;47690;39.202;-77.198;2022-09-29T04:52:53;101087.75;;;40.96;12.75
50105;BME280;47690;39.202;-77.198;2022-09-29T04:57:13;101093.75;;;40.91;12.42
50105;BME280;47690;39.202;-77.198;2022-09-29T05:28:29;101115.91;;;42.28;11.72
50105;BME280;47690;39.202;-77.198;2022-09-29T05:32:24;101114.78;;;41.90;11.69
50105;BME280;47690;39.202;-77.198;2022-09-29T05:37:32;101118.25;;;42.18;11.77
50105;BME280;47690;39.202;-77.198;2022-09-29T05:47:35;101122.50;;;41.46;12.06
50105;BME280;47690;39.202;-77.198;2022-09-29T05:52:04;101122.47;;;41.06;12.87
50105;BME280;47690;39.202;-77.198;2022-09-29T05:56:15;101124.50;;;41.04;12.72
50105;BME280;47690;39.202;-77.198;2022-09-29T06:00:29;101135.31;;;41.04;12.62
50105;BME280;47690;39.202;-77.198;2022-09-29T06:08:30;101133.66;;;42.04;12.03
50105;BME280;47690;39.202;-77.198;2022-09-29T06:18:05;101154.94;;;41.87;11.93
50105;BME280;47690;39.202;-77.198;2022-09-29T06:21:17;101149.47;;;42.00;11.78
50105;BME280;47690;39.202;-77.198;2022-09-29T06:24:49;101147.00;;;42.12;11.84
50105;BME280;47690;39.202;-77.198;2022-09-29T06:28:05;101154.09;;;41.86;11.71
50105;BME280;47690;39.202;-77.198;2022-09-29T06:31:01;101161.78;;;41.89;12.53
50105;BME280;47690;39.202;-77.198;2022-09-29T06:34:28;101159.66;;;41.17;12.98
50105;BME280;47690;39.202;-77.198;2022-09-29T06:38:04;101165.03;;;40.90;12.76
50105;BME280;47690;39.202;-77.198;2022-09-29T06:41:05;101160.06;;;41.07;12.97
50105;BME280;47690;39.202;-77.198;2022-09-29T06:44:09;101159.72;;;41.58;12.38
50105;BME280;47690;39.202;-77.198;2022-09-29T06:52:05;101155.00;;;42.92;11.61
50105;BME280;47690;39.202;-77.198;2022-09-29T06:56:14;101157.28;;;43.27;11.28
50105;BME280;47690;39.202;-77.198;2022-09-29T07:01:24;101163.34;;;42.97;11.19
50105;BME280;47690;39.202;-77.198;2022-09-29T07:04:42;101158.38;;;42.87;11.48
50105;BME280;47690;39.202;-77.198;2022-09-29T07:08:05;101160.75;;;42.63;11.52
50105;BME280;47690;39.202;-77.198;2022-09-29T07:11:53;101167.81;;;42.71;11.66
50105;BME280;47690;39.202;-77.198;2022-09-29T07:16:58;101161.81;;;42.69;11.17
50105;BME280;47690;39.202;-77.198;2022-09-29T07:21:06;101156.72;;;42.86;11.25
50105;BME280;47690;39.202;-77.198;2022-09-29T07:24:18;101145.47;;;42.82;11.04
50105;BME280;47690;39.202;-77.198;2022-09-29T07:28:52;101153.09;;;42.99;11.18
50105;BME280;47690;39.202;-77.198;2022-09-29T07:32:29;101160.09;;;42.75;11.23
50105;BME280;47690;39.202;-77.198;2022-09-29T07:36:31;101168.75;;;42.90;11.19
50105;BME280;47690;39.202;-77.198;2022-09-29T07:40:01;101170.59;;;43.29;10.95
50105;BME280;47690;39.202;-77.198;2022-09-29T07:43:30;101168.41;;;43.44;10.69
50105;BME280;47690;39.202;-77.198;2022-09-29T07:46:36;101168.44;;;42.73;11.29
50105;BME280;47690;39.202;-77.198;2022-09-29T07:50:00;101164.59;;;42.49;11.45
50105;BME280;47690;39.202;-77.198;2022-09-29T07:53:30;101166.84;;;42.58;11.49
50105;BME280;47690;39.202;-77.198;2022-09-29T07:56:41;101163.38;;;42.38;11.61
50105;BME280;47690;39.202;-77.198;2022-09-29T08:00:55;101173.03;;;42.13;11.49
50105;BME280;47690;39.202;-77.198;2022-09-29T08:04:08;101164.69;;;41.34;12.44
50105;BME280;47690;39.202;-77.198;2022-09-29T08:08:22;101175.53;;;41.88;11.89
50105;BME280;47690;39.202;-77.198;2022-09-29T08:11:44;101172.41;;;41.77;11.54
50105;BME280;47690;39.202;-77.198;2022-09-29T08:16:21;101169.91;;;41.56;12.16
50105;BME280;47690;39.202;-77.198;2022-09-29T08:19:53;101181.53;;;42.10;11.46
50105;BME280;47690;39.202;-77.198;2022-09-29T08:28:33;101173.03;;;42.66;11.15
50105;BME280;47690;39.202;-77.198;2022-09-29T08:32:01;101189.91;;;41.75;11.76
50105;BME280;47690;39.202;-77.198;2022-09-29T08:37:05;101187.34;;;41.33;12.25
50105;BME280;47690;39.202;-77.198;2022-09-29T08:41:03;101176.66;;;42.46;11.42
50105;BME280;47690;39.202;-77.198;2022-09-29T08:44:35;101172.63;;;42.69;11.09
50105;BME280;47690;39.202;-77.198;2022-09-29T08:48:41;101174.66;;;43.19;10.67
50105;BME280;47690;39.202;-77.198;2022-09-29T08:52:32;101189.03;;;41.41;11.50
50105;BME280;47690;39.202;-77.198;2022-09-29T08:57:22;101192.28;;;41.09;11.98
50105;BME280;47690;39.202;-77.198;2022-09-29T09:10:11;101181.00;;;40.92;11.74
50105;BME280;47690;39.202;-77.198;2022-09-29T09:23:18;101199.16;;;40.63;12.48
50105;BME280;47690;39.202;-77.198;2022-09-29T09:33:07;101212.28;;;41.21;11.57
50105;BME280;47690;39.202;-77.198;2022-09-29T09:37:27;101207.63;;;40.95;12.20
50105;BME280;47690;39.202;-77.198;2022-09-29T09:42:00;101216.41;;;40.62;11.93
50105;BME280;47690;39.202;-77.198;2022-09-29T09:46:48;101220.09;;;40.25;12.10
50105;BME280;47690;39.202;-77.198;2022-09-29T09:50:24;101220.63;;;40.78;12.25
50105;BME280;47690;39.202;-77.198;2022-09-29T09:54:32;101212.91;;;41.23;11.92
50105;BME280;47690;39.202;-77.198;2022-09-29T10:04:16;101218.13;;;41.25;11.34
50105;BME280;47690;39.202;-77.198;2022-09-29T10:08:08;101223.50;;;40.69;11.77
50105;BME280;47690;39.202;-77.198;2022-09-29T10:12:18;101223.59;;;40.90;11.80
50105;BME280;47690;39.202;-77.198;2022-09-29T10:20:44;101221.91;;;42.18;10.99
50105;BME280;47690;39.202;-77.198;2022-09-29T10:25:17;101215.69;;;42.18;10.81
50105;BME280;47690;39.202;-77.198;2022-09-29T10:29:49;101220.25;;;41.97;10.94
50105;BME280;47690;39.202;-77.198;2022-09-29T10:40:02;101219.47;;;41.01;11.53
50105;BME280;47690;39.202;-77.198;2022-09-29T11:07:34;101240.72;;;40.05;12.19
50105;BME280;47690;39.202;-77.198;2022-09-29T11:30:11;101284.41;;;39.71;12.50
50105;BME280;47690;39.202;-77.198;2022-09-29T11:44:08;101289.34;;;41.17;11.25
50105;BME280;47690;39.202;-77.198;2022-09-29T12:12:20;101303.22;;;41.63;11.88
50105;BME280;47690;39.202;-77.198;2022-09-29T12:15:50;101306.53;;;41.51;12.02
50105;BME280;47690;39.202;-77.198;2022-09-29T12:19:42;101308.09;;;42.01;11.42
50105;BME280;47690;39.202;-77.198;2022-09-29T12:23:20;101298.50;;;43.90;11.18
50105;BME280;47690;39.202;-77.198;2022-09-29T12:26:22;101310.97;;;46.14;9.92
50105;BME280;47690;39.202;-77.198;2022-09-29T12:29:47;101307.13;;;47.44;9.40
50105;BME280;47690;39.202;-77.198;2022-09-29T12:33:44;101319.16;;;48.51;8.58
50105;BME280;47690;39.202;-77.198;2022-09-29T12:36:56;101319.25;;;49.99;7.91
50105;BME280;47690;39.202;-77.198;2022-09-29T12:40:15;101327.06;;;47.96;8.63
50105;BME280;47690;39.202;-77.198;2022-09-29T12:43:55;101332.53;;;48.53;8.42
50105;BME280;47690;39.202;-77.198;2022-09-29T12:48:11;101326.09;;;50.02;7.54
50105;BME280;47690;39.202;-77.198;2022-09-29T12:51:37;101326.69;;;52.50;6.92
50105;BME280;47690;39.202;-77.198;2022-09-29T12:54:53;101336.19;;;53.58;6.04
50105;BME280;47690;39.202;-77.198;2022-09-29T12:58:05;101344.44;;;51.60;7.31
50105;BME280;47690;39.202;-77.198;2022-09-29T13:01:39;101359.31;;;49.45;8.21
50105;BME280;47690;39.202;-77.198;2022-09-29T13:12:40;101347.25;;;49.19;8.27
50105;BME280;47690;39.202;-77.198;2022-09-29T13:19:39;101364.63;;;48.63;8.68
50105;BME280;47690;39.202;-77.198;2022-09-29T13:23:24;101352.06;;;48.22;8.65
50105;BME280;47690;39.202;-77.198;2022-09-29T13:30:20;101369.34;;;46.42;9.48
50105;BME280;47690;39.202;-77.198;2022-09-29T13:33:33;101374.31;;;46.21;9.24
50105;BME280;47690;39.202;-77.198;2022-09-29T13:36:40;101377.72;;;46.16;9.99
50105;BME280;47690;39.202;-77.198;2022-09-29T13:40:24;101365.66;;;45.58;10.22
50105;BME280;47690;39.202;-77.198;2022-09-29T13:44:18;101365.66;;;46.12;9.02
50105;BME280;47690;39.202;-77.198;2022-09-29T13:48:00;101383.84;;;45.88;9.69
50105;BME280;47690;39.202;-77.198;2022-09-29T13:59:13;101402.53;;;44.02;9.99
50105;BME280;47690;39.202;-77.198;2022-09-29T14:02:38;101392.06;;;44.06;9.98
50105;BME280;47690;39.202;-77.198;2022-09-29T14:06:18;101385.69;;;43.09;10.79
50105;BME280;47690;39.202;-77.198;2022-09-29T14:09:36;101379.88;;;42.85;10.88
50105;BME280;47690;39.202;-77.198;2022-09-29T14:13:27;101385.09;;;43.00;10.78
50105;BME280;47690;39.202;-77.198;2022-09-29T14:17:03;101376.31;;;43.05;10.81
50105;BME280;47690;39.202;-77.198;2022-09-29T14:20:25;101384.28;;;42.66;10.91
50105;BME280;47690;39.202;-77.198;2022-09-29T14:26:53;101378.06;;;42.31;11.31
50105;BME280;47690;39.202;-77.198;2022-09-29T14:30:43;101378.09;;;43.38;10.63
50105;BME280;47690;39.202;-77.198;2022-09-29T14:33:45;101378.53;;;43.21;10.65
50105;BME280;47690;39.202;-77.198;2022-09-29T14:36:53;101397.41;;;42.82;10.78
50105;BME280;47690;39.202;-77.198;2022-09-29T14:40:06;101395.72;;;42.81;11.04
50105;BME280;47690;39.202;-77.198;2022-09-29T14:47:29;101377.88;;;43.26;10.42
50105;BME280;47690;39.202;-77.198;2022-09-29T14:51:05;101375.56;;;42.57;10.92
50105;BME280;47690;39.202;-77.198;2022-09-29T14:58:33;101366.59;;;42.23;11.15
50105;BME280;47690;39.202;-77.198;2022-09-29T15:01:33;101353.91;;;42.43;10.83
50105;BME280;47690;39.202;-77.198;2022-09-29T15:05:11;101357.03;;;42.54;11.06
50105;BME280;47690;39.202;-77.198;2022-09-29T15:08:26;101342.63;;;43.72;10.29
50105;BME280;47690;39.202;-77.198;2022-09-29T15:11:53;101333.84;;;43.76;10.59
50105;BME280;47690;39.202;-77.198;2022-09-29T15:25:44;101336.53;;;43.44;10.32
50105;BME280;47690;39.202;-77.198;2022-09-29T15:28:53;101355.19;;;43.27;10.48
50105;BME280;47690;39.202;-77.198;2022-09-29T15:32:30;101337.47;;;44.46;9.68
50105;BME280;47690;39.202;-77.198;2022-09-29T15:35:43;101350.31;;;43.43;10.53
50105;BME280;47690;39.202;-77.198;2022-09-29T15:38:54;101366.31;;;42.98;10.70
50105;BME280;47690;39.202;-77.198;2022-09-29T15:42:20;101355.88;;;43.02;10.53
50105;BME280;47690;39.202;-77.198;2022-09-29T15:45:38;101353.41;;;42.87;10.55
50105;BME280;47690;39.202;-77.198;2022-09-29T15:49:18;101349.84;;;43.52;9.97
50105;BME280;47690;39.202;-77.198;2022-09-29T15:52:44;101353.97;;;43.16;10.30
50105;BME280;47690;39.202;-77.198;2022-09-29T15:56:21;101352.59;;;43.85;10.06
50105;BME280;47690;39.202;-77.198;2022-09-29T15:59:57;101344.47;;;44.35;9.78
50105;BME280;47690;39.202;-77.198;2022-09-29T16:03:36;101331.75;;;43.39;10.43
50105;BME280;47690;39.202;-77.198;2022-09-29T16:06:43;101344.00;;;43.10;10.61
50105;BME280;47690;39.202;-77.198;2022-09-29T16:09:41;101328.88;;;42.75;10.66
50105;BME280;47690;39.202;-77.198;2022-09-29T16:12:55;101325.91;;;42.97;10.53
50105;BME280;47690;39.202;-77.198;2022-09-29T16:16:17;101331.09;;;42.92;10.90
50105;BME280;47690;39.202;-77.198;2022-09-29T16:20:18;101319.88;;;43.40;10.41
50105;BME280;47690;39.202;-77.198;2022-09-29T16:24:17;101321.63;;;43.60;10.33
50105;BME280;47690;39.202;-77.198;2022-09-29T16:27:51;101310.63;;;43.87;9.98
50105;BME280;47690;39.202;-77.198;2022-09-29T16:31:20;101303.66;;;43.98;9.98
50105;BME280;47690;39.202;-77.198;2022-09-29T16:39:48;101301.84;;;44.11;10.27
50105;BME280;47690;39.202;-77.198;2022-09-29T16:44:42;101296.16;;;43.93;10.16
50105;BME280;47690;39.202;-77.198;2022-09-29T16:47:52;101303.09;;;43.57;10.23
50105;BME280;47690;39.202;-77.198;2022-09-29T16:51:07;101306.84;;;43.56;10.79
50105;BME280;47690;39.202;-77.198;2022-09-29T16:54:52;101292.09;;;43.77;10.33
50105;BME280;47690;39.202;-77.198;2022-09-29T17:01:41;101279.66;;;44.20;10.00
50105;BME280;47690;39.202;-77.198;2022-09-29T17:04:56;101284.16;;;44.08;10.30
50105;BME280;47690;39.202;-77.198;2022-09-29T17:08:46;101280.34;;;45.09;9.39
50105;BME280;47690;39.202;-77.198;2022-09-29T17:12:21;101290.13;;;45.83;9.08
50105;BME280;47690;39.202;-77.198;2022-09-29T17:15:30;101277.03;;;44.70;9.41
50105;BME280;47690;39.202;-77.198;2022-09-29T17:18:53;101274.59;;;44.99;9.58
50105;BME280;47690;39.202;-77.198;2022-09-29T17:22:42;101272.41;;;45.38;9.21
50105;BME280;47690;39.202;-77.198;2022-09-29T17:25:54;101272.56;;;44.57;9.78
50105;BME280;47690;39.202;-77.198;2022-09-29T17:30:32;101258.28;;;45.72;9.00
50105;BME280;47690;39.202;-77.198;2022-09-29T17:34:29;101248.91;;;45.68;9.21
50105;BME280;47690;39.202;-77.198;2022-09-29T17:39:24;101251.34;;;45.34;9.44
50105;BME280;47690;39.202;-77.198;2022-09-29T17:43:21;101234.78;;;45.35;9.75
50105;BME280;47690;39.202;-77.198;2022-09-29T17:46:54;101231.50;;;45.45;9.26
50105;BME280;47690;39.202;-77.198;2022-09-29T17:50:46;101252.72;;;46.03;9.19
50105;BME280;47690;39.202;-77.198;2022-09-29T17:54:21;101243.16;;;45.88;8.67
50105;BME280;47690;39.202;-77.198;2022-09-29T17:58:52;101242.31;;;46.11;8.67
50105;BME280;47690;39.202;-77.198;2022-09-29T18:03:46;101243.75;;;45.66;9.27
50105;BME280;47690;39.202;-77.198;2022-09-29T18:07:58;101228.47;;;45.11;9.61
50105;BME280;47690;39.202;-77.198;2022-09-29T18:11:17;101218.88;;;45.08;9.65
50105;BME280;47690;39.202;-77.198;2022-09-29T18:20:40;101214.63;;;45.67;8.98
50105;BME280;47690;39.202;-77.198;2022-09-29T18:25:29;101218.19;;;45.55;8.96
50105;BME280;47690;39.202;-77.198;2022-09-29T18:30:00;101199.44;;;46.19;9.15
50105;BME280;47690;39.202;-77.198;2022-09-29T18:34:52;101185.31;;;46.46;8.91
50105;BME280;47690;39.202;-77.198;2022-09-29T18:39:44;101196.06;;;46.53;8.63
50105;BME280;47690;39.202;-77.198;2022-09-29T18:49:47;101174.66;;;46.44;8.53
50105;BME280;47690;39.202;-77.198;2022-09-29T18:54:55;101169.88;;;46.22;9.16
50105;BME280;47690;39.202;-77.198;2022-09-29T19:00:18;101167.06;;;47.04;8.42
50105;BME280;47690;39.202;-77.198;2022-09-29T19:04:49;101160.44;;;46.83;8.40
50105;BME280;47690;39.202;-77.198;2022-09-29T19:09:53;101153.44;;;46.46;8.58
50105;BME280;47690;39.202;-77.198;2022-09-29T19:15:20;101167.44;;;45.85;9.17
50105;BME280;47690;39.202;-77.198;2022-09-29T19:44:24;101172.97;;;46.02;9.30
50105;BME280;47690;39.202;-77.198;2022-09-29T19:49:26;101150.28;;;45.96;9.31
50105;BME280;47690;39.202;-77.198;2022-09-29T19:55:03;101156.66;;;45.78;9.39
50105;BME280;47690;39.202;-77.198;2022-09-29T19:59:57;101142.81;;;45.80;8.87
50105;BME280;47690;39.202;-77.198;2022-09-29T20:04:12;101125.16;;;46.47;8.72
50105;BME280;47690;39.202;-77.198;2022-09-29T20:09:46;101137.63;;;45.78;9.09
50105;BME280;47690;39.202;-77.198;2022-09-29T20:42:28;101160.84;;;44.72;9.96
50105;BME280;47690;39.202;-77.198;2022-09-29T20:47:41;101152.81;;;44.77;9.82
50105;BME280;47690;39.202;-77.198;2022-09-29T20:52:38;101155.31;;;44.79;9.86
50105;BME280;47690;39.202;-77.198;2022-09-29T20:57:17;101165.59;;;44.58;9.96
50105;BME280;47690;39.202;-77.198;2022-09-29T21:01:59;101162.31;;;44.86;9.46
50105;BME280;47690;39.202;-77.198;2022-09-29T21:07:06;101162.41;;;44.80;9.90
50105;BME280;47690;39.202;-77.198;2022-09-29T21:11:26;101160.97;;;45.08;9.57
50105;BME280;47690;39.202;-77.198;2022-09-29T21:21:49;101156.03;;;44.86;9.60
50105;BME280;47690;39.202;-77.198;2022-09-29T21:26:45;101142.09;;;44.82;9.89
50105;BME280;47690;39.202;-77.198;2022-09-29T21:37:39;101149.53;;;44.87;9.50
50105;BME280;47690;39.202;-77.198;2022-09-29T21:41:53;101153.53;;;44.54;10.00
50105;BME280;47690;39.202;-77.198;2022-09-29T21:51:23;101160.94;;;46.39;8.79
50105;BME280;47690;39.202;-77.198;2022-09-29T21:56:11;101165.75;;;46.08;8.84
50105;BME280;47690;39.202;-77.198;2022-09-29T22:01:00;101160.31;;;45.96;8.90
50105;BME280;47690;39.202;-77.198;2022-09-29T22:05:54;101155.25;;;45.76;9.27
50105;BME280;47690;39.202;-77.198;2022-09-29T22:10:39;101153.78;;;46.21;8.71
50105;BME280;47690;39.202;-77.198;2022-09-29T22:15:31;101154.19;;;45.77;9.38
50105;BME280;47690;39.202;-77.198;2022-09-29T22:20:56;101138.09;;;45.51;9.59
50105;BME280;47690;39.202;-77.198;2022-09-29T22:25:27;101131.47;;;44.31;9.84
50105;BME280;47690;39.202;-77.198;2022-09-29T22:30:14;101125.28;;;44.43;9.84
50105;BME280;47690;39.202;-77.198;2022-09-29T22:34:26;101128.06;;;43.99;10.31
50105;BME280;47690;39.202;-77.198;2022-09-29T22:42:49;101119.25;;;44.03;10.27
50105;BME280;47690;39.202;-77.198;2022-09-29T22:47:42;101116.34;;;44.24;10.20
50105;BME280;47690;39.202;-77.198;2022-09-29T22:52:45;101105.47;;;44.24;10.46
50105;BME280;47690;39.202;-77.198;2022-09-29T22:57:47;101109.13;;;44.11;10.49
50105;BME280;47690;39.202;-77.198;2022-09-29T23:02:35;101116.09;;;43.88;10.37
50105;BME280;47690;39.202;-77.198;2022-09-29T23:08:06;101115.22;;;43.68;10.43
50105;BME280;47690;39.202;-77.198;2022-09-29T23:13:44;101118.59;;;43.89;10.64
50105;BME280;47690;39.202;-77.198;2022-09-29T23:18:50;101118.38;;;43.65;10.82
50105;BME280;47690;39.202;-77.198;2022-09-29T23:24:17;101130.66;;;45.82;9.58
50105;BME280;47690;39.202;-77.198;2022-09-29T23:59:00;101112.88;;;42.64;11.28
